createdAt,value
2023-05-14T04:38:02.176Z,26.20
2023-05-14T04:40:28.931Z,30.50
2023-05-14T04:42:55.653Z,31.60
2023-05-14T04:45:22.373Z,32.00
2023-05-14T06:08:40.347Z,28.90
2023-05-14T07:12:16.579Z,28.27
2023-05-14T07:14:43.270Z,32.80
2023-05-14T07:17:10.107Z,30.80
2023-05-14T07:19:36.894Z,30.60
2023-05-14T07:22:03.716Z,31.38
2023-05-14T07:24:30.644Z,37.20
2023-05-14T07:26:57.703Z,32.05
2023-05-14T07:29:25.705Z,34.42
2023-05-14T07:31:52.538Z,37.40
2023-05-14T07:34:19.649Z,33.95
2023-05-14T07:36:47.037Z,35.53
2023-05-14T07:39:13.864Z,35.63
2023-05-14T07:41:40.584Z,37.05
2023-05-14T07:44:07.298Z,37.03
2023-05-14T07:46:34.176Z,36.88
2023-05-14T07:49:01.014Z,35.83
2023-05-14T07:51:28.746Z,39.38
2023-05-14T07:53:58.443Z,34.45
2023-05-14T07:56:25.168Z,37.80
2023-05-14T07:58:52.008Z,39.65
2023-05-14T08:01:18.888Z,38.78
2023-05-14T08:03:45.993Z,40.63
2023-05-14T08:06:12.944Z,36.92
2023-05-14T08:08:39.966Z,37.28
2023-05-14T08:11:06.669Z,40.08
2023-05-14T08:13:33.521Z,39.45
2023-05-14T08:16:00.556Z,33.80
2023-05-14T08:18:27.376Z,39.75
2023-05-14T08:20:54.301Z,51.25
2023-05-14T08:23:21.065Z,95.05
2023-05-14T08:25:47.802Z,89.50
2023-05-14T08:28:14.535Z,62.05
2023-05-14T08:30:41.299Z,114.90
2023-05-14T08:33:08.163Z,99.93
2023-05-14T08:35:34.950Z,96.10
2023-05-14T08:38:01.872Z,120.00
2023-05-14T08:40:28.678Z,50.05
2023-05-14T08:42:57.132Z,39.53
2023-05-14T08:45:30.206Z,34.55
2023-05-14T08:47:58.720Z,35.67
2023-05-14T08:50:26.010Z,36.90
2023-05-14T08:52:53.368Z,34.90
2023-05-14T08:55:20.089Z,32.15
2023-05-14T08:57:46.792Z,32.63
2023-05-14T09:00:14.496Z,28.70
2023-05-14T09:02:41.965Z,31.15
2023-05-14T09:05:12.740Z,31.75
2023-05-14T09:07:39.645Z,30.27
2023-05-14T09:10:07.109Z,29.77
2023-05-14T09:12:33.848Z,28.27
2023-05-14T09:15:00.706Z,24.60
2023-05-14T09:17:28.279Z,23.40
2023-05-14T09:19:55.157Z,24.55
2023-05-14T09:22:22.547Z,22.02
2023-05-14T09:25:02.231Z,24.73
2023-05-14T09:27:29.961Z,20.90
2023-05-14T09:29:56.738Z,18.65
2023-05-14T09:32:23.441Z,17.67
2023-05-14T09:34:50.178Z,19.98
2023-05-14T09:37:16.899Z,18.80
2023-05-14T09:39:43.627Z,17.38
2023-05-14T09:42:10.867Z,17.40
2023-05-14T09:44:38.300Z,12.93
2023-05-14T09:47:05.147Z,15.82
2023-05-14T09:49:31.973Z,14.57
2023-05-14T09:51:58.972Z,14.68
2023-05-14T09:54:26.705Z,16.38
2023-05-14T09:56:55.495Z,16.60
2023-05-14T09:59:22.512Z,16.70
2023-05-14T10:01:49.992Z,17.17
2023-05-14T10:04:17.072Z,17.48
2023-05-14T10:06:44.306Z,18.70
2023-05-14T10:09:13.668Z,16.73
2023-05-14T10:11:43.332Z,17.20
2023-05-14T10:14:21.124Z,18.33
2023-05-14T10:16:50.267Z,17.42
2023-05-14T10:19:18.442Z,17.52
2023-05-14T10:21:46.091Z,22.15
2023-05-14T10:24:13.385Z,19.92
2023-05-14T10:26:41.067Z,29.13
2023-05-14T10:29:09.526Z,20.05
2023-05-14T10:31:56.050Z,19.85
2023-05-14T10:34:34.982Z,18.20
2023-05-14T10:37:02.503Z,19.35
2023-05-14T10:39:47.785Z,24.77
2023-05-14T10:42:17.374Z,18.95
2023-05-14T10:44:49.892Z,22.80
2023-05-14T10:47:19.788Z,20.70
2023-05-14T10:49:49.304Z,18.85
2023-05-14T10:52:22.166Z,20.02
2023-05-14T10:54:49.979Z,25.83
2023-05-14T10:57:17.813Z,31.05
2023-05-14T10:59:44.952Z,31.05
2023-05-14T11:02:22.451Z,27.88
2023-05-14T11:04:59.308Z,28.63
2023-05-14T11:07:29.994Z,31.35
2023-05-14T11:10:00.975Z,28.37
2023-05-14T11:12:28.227Z,25.50
2023-05-14T11:14:57.375Z,19.27
2023-05-14T11:17:25.073Z,20.40
2023-05-14T11:19:51.892Z,19.80
2023-05-14T11:22:18.666Z,21.27
2023-05-14T11:24:45.515Z,19.30
2023-05-14T11:27:12.337Z,22.05
2023-05-14T11:29:39.120Z,24.85
2023-05-14T11:32:06.450Z,24.45
2023-05-14T11:34:34.810Z,30.10
2023-05-14T11:37:05.358Z,33.10
2023-05-14T11:39:33.359Z,25.25
2023-05-14T11:42:02.662Z,27.75
2023-05-14T11:44:29.530Z,26.90
2023-05-14T11:46:57.333Z,31.73
2023-05-14T11:49:24.586Z,26.52
2023-05-14T11:51:56.996Z,34.67
2023-05-14T11:54:25.559Z,38.50
2023-05-14T11:56:53.353Z,39.60
2023-05-14T11:59:20.247Z,28.95
2023-05-14T12:01:48.507Z,25.48
2023-05-14T12:04:19.190Z,22.50
2023-05-14T12:06:46.880Z,21.75
2023-05-14T12:09:16.568Z,29.52
2023-05-14T12:11:43.838Z,35.17
2023-05-14T12:14:11.429Z,22.77
2023-05-14T12:16:40.095Z,23.13
2023-05-14T12:19:08.588Z,23.60
2023-05-14T12:21:35.322Z,25.05
2023-05-14T12:24:02.439Z,24.48
2023-05-14T12:26:32.617Z,21.38
2023-05-14T12:29:02.969Z,21.23
2023-05-14T12:31:30.512Z,26.17
2023-05-14T12:33:57.764Z,31.08
2023-05-14T12:36:24.584Z,25.50
2023-05-14T13:54:43.324Z,61.20
2023-05-14T13:57:09.995Z,33.63
2023-05-14T13:59:36.757Z,25.58
2023-05-14T14:02:03.558Z,19.95
2023-05-14T14:04:31.106Z,21.90
2023-05-14T14:06:58.164Z,19.42
2023-05-14T14:09:25.132Z,18.88
2023-05-14T14:11:51.959Z,23.25
2023-05-14T14:14:21.796Z,51.75
2023-05-14T14:16:48.459Z,83.90
2023-05-14T14:19:16.268Z,39.13
2023-05-14T14:21:44.703Z,35.97
2023-05-14T14:24:11.431Z,33.00
2023-05-14T14:26:38.175Z,42.25
2023-05-14T14:29:04.850Z,50.80
2023-05-14T14:31:31.562Z,36.00
2023-05-14T14:33:58.258Z,33.58
2023-05-14T14:36:24.978Z,38.35
2023-05-14T14:38:51.786Z,42.80
